createdAt,value
2022-10-09T00:00:07.245Z,9.02
2022-10-09T00:02:37.611Z,8.99
2022-10-09T00:05:08.712Z,8.96
2022-10-09T00:07:39.178Z,8.95
2022-10-09T00:10:09.916Z,8.99
2022-10-09T00:12:40.284Z,8.93
2022-10-09T00:15:11.406Z,8.88
2022-10-09T00:17:41.804Z,9.01
2022-10-09T00:20:12.623Z,8.91
2022-10-09T00:22:44.748Z,8.88
2022-10-09T00:25:15.227Z,8.87
2022-10-09T00:27:45.546Z,8.91
2022-10-09T00:30:16.079Z,9.02
2022-10-09T00:32:46.787Z,8.86
2022-10-09T00:35:17.495Z,8.82
2022-10-09T00:37:48.741Z,8.80
2022-10-09T00:40:21.098Z,8.80
2022-10-09T00:42:59.181Z,8.78
2022-10-09T00:45:30.555Z,8.77
2022-10-09T00:48:07.333Z,8.80
2022-10-09T00:50:55.154Z,8.77
2022-10-09T00:53:28.021Z,8.78
2022-10-09T00:55:59.244Z,8.76
2022-10-09T00:58:29.732Z,8.79
2022-10-09T01:01:00.506Z,8.82
2022-10-09T01:03:30.854Z,8.88
2022-10-09T01:06:23.969Z,8.76
2022-10-09T01:09:15.663Z,8.70
2022-10-09T01:12:00.991Z,8.73
2022-10-09T01:14:34.411Z,8.70
2022-10-09T01:17:10.834Z,8.75
2022-10-09T01:20:04.696Z,8.68
2022-10-09T01:23:01.921Z,8.68
2022-10-09T01:25:47.571Z,8.66
2022-10-09T01:28:21.125Z,8.64
2022-10-09T01:30:52.390Z,8.62
2022-10-09T01:33:23.039Z,8.62
2022-10-09T01:35:55.226Z,8.60
2022-10-09T01:38:26.366Z,8.59
2022-10-09T01:40:57.806Z,8.60
2022-10-09T01:43:28.210Z,8.57
2022-10-09T01:46:24.272Z,8.56
2022-10-09T01:48:57.948Z,8.54
2022-10-09T01:51:31.320Z,8.56
2022-10-09T01:54:04.826Z,8.56
2022-10-09T01:56:37.729Z,8.55
2022-10-09T01:59:16.110Z,8.48
2022-10-09T02:01:47.727Z,8.52
2022-10-09T02:04:19.431Z,8.53
2022-10-09T02:06:50.333Z,8.47
2022-10-09T02:09:20.712Z,8.47
2022-10-09T02:11:54.206Z,8.46
2022-10-09T02:14:24.809Z,8.47
2022-10-09T02:17:00.988Z,8.50
2022-10-09T02:19:34.811Z,8.43
2022-10-09T02:22:20.170Z,8.40
2022-10-09T02:24:50.785Z,8.38
2022-10-09T02:27:22.937Z,8.34
2022-10-09T02:29:54.092Z,8.36
2022-10-09T02:32:24.562Z,8.38
2022-10-09T02:34:54.967Z,8.38
2022-10-09T02:37:25.540Z,8.34
2022-10-09T02:39:56.027Z,8.36
2022-10-09T02:42:26.496Z,8.36
2022-10-09T02:44:56.912Z,8.34
2022-10-09T02:47:27.233Z,8.28
2022-10-09T02:49:57.633Z,8.26
2022-10-09T02:52:28.143Z,8.32
2022-10-09T02:54:58.516Z,8.24
2022-10-09T02:57:29.124Z,8.25
2022-10-09T02:59:59.433Z,8.28
2022-10-09T03:02:30.092Z,8.26
2022-10-09T03:05:00.813Z,8.24
2022-10-09T03:07:31.195Z,8.20
2022-10-09T03:10:01.669Z,8.16
2022-10-09T03:12:31.992Z,8.18
2022-10-09T03:15:02.454Z,8.24
2022-10-09T03:17:32.818Z,8.24
2022-10-09T03:20:03.253Z,8.16
2022-10-09T03:22:33.595Z,8.16
2022-10-09T03:25:04.161Z,8.16
2022-10-09T03:27:34.895Z,8.15
2022-10-09T03:30:05.988Z,8.18
2022-10-09T03:32:36.380Z,8.13
2022-10-09T03:35:07.477Z,8.13
2022-10-09T03:37:37.780Z,8.13
2022-10-09T03:40:08.823Z,8.11
2022-10-09T03:42:39.142Z,8.10
2022-10-09T03:45:10.421Z,8.05
2022-10-09T03:47:40.834Z,8.12
2022-10-09T03:50:11.419Z,8.09
2022-10-09T03:52:41.721Z,8.05
2022-10-09T03:55:12.128Z,8.03
2022-10-09T03:57:42.586Z,8.02
2022-10-09T04:00:14.019Z,8.03
2022-10-09T04:02:44.814Z,7.99
2022-10-09T04:05:15.409Z,7.95
2022-10-09T04:07:46.173Z,8.00
2022-10-09T04:10:16.770Z,7.95
2022-10-09T04:12:47.443Z,7.90
2022-10-09T04:15:18.293Z,7.94
2022-10-09T04:17:48.670Z,7.92
2022-10-09T04:20:20.804Z,7.94
2022-10-09T04:22:51.645Z,7.94
2022-10-09T04:25:22.213Z,7.94
2022-10-09T04:27:52.570Z,7.96
2022-10-09T04:30:22.879Z,7.88
2022-10-09T04:32:53.175Z,7.95
2022-10-09T04:35:23.576Z,7.93
2022-10-09T04:37:53.943Z,7.88
2022-10-09T04:40:24.344Z,7.94
2022-10-09T04:42:54.716Z,7.92
2022-10-09T04:45:25.114Z,7.87
2022-10-09T04:47:55.440Z,7.85
2022-10-09T04:50:25.955Z,7.86
2022-10-09T04:52:56.254Z,7.87
2022-10-09T04:55:26.564Z,7.84
2022-10-09T04:57:56.871Z,7.86
2022-10-09T05:00:27.214Z,7.80
2022-10-09T05:02:57.587Z,7.76
2022-10-09T05:05:27.894Z,7.76
2022-10-09T05:07:58.252Z,7.75
2022-10-09T05:10:28.639Z,7.73
2022-10-09T05:12:59.844Z,7.72
2022-10-09T05:15:30.249Z,7.68
2022-10-09T05:18:00.596Z,7.70
2022-10-09T05:20:30.936Z,7.70
2022-10-09T05:23:01.486Z,7.73
2022-10-09T05:25:31.839Z,7.78
2022-10-09T05:28:04.779Z,7.73
2022-10-09T05:30:35.065Z,7.75
2022-10-09T05:33:05.446Z,7.71
2022-10-09T05:35:35.801Z,7.68
2022-10-09T05:38:06.163Z,7.70
2022-10-09T05:40:36.563Z,7.68
2022-10-09T05:43:06.978Z,7.72
2022-10-09T05:45:37.369Z,7.72
2022-10-09T05:48:07.805Z,7.77
2022-10-09T05:50:38.215Z,7.76
2022-10-09T05:53:08.624Z,7.78
2022-10-09T05:55:38.939Z,7.92
2022-10-09T05:58:09.365Z,7.84
2022-10-09T06:00:39.702Z,7.90
2022-10-09T06:03:10.062Z,7.92
2022-10-09T06:05:40.421Z,7.90
2022-10-09T06:08:10.747Z,7.98
2022-10-09T06:10:41.143Z,7.90
2022-10-09T06:13:11.533Z,7.97
2022-10-09T06:15:43.545Z,7.93
2022-10-09T06:18:15.387Z,8.02
2022-10-09T06:20:54.045Z,8.08
2022-10-09T06:23:24.620Z,8.14
2022-10-09T06:25:56.845Z,8.30
2022-10-09T06:28:30.765Z,8.24
2022-10-09T06:31:07.576Z,8.37
2022-10-09T06:33:40.099Z,8.26
2022-10-09T06:36:13.976Z,8.24
2022-10-09T06:38:44.815Z,8.20
2022-10-09T06:41:17.830Z,8.30
2022-10-09T06:44:04.044Z,8.36
2022-10-09T06:46:37.745Z,8.35
2022-10-09T06:49:09.301Z,8.42
2022-10-09T06:51:40.130Z,8.54
2022-10-09T06:54:17.240Z,8.66
2022-10-09T06:56:47.675Z,8.57
2022-10-09T06:59:18.156Z,8.64
2022-10-09T07:01:48.646Z,8.64
2022-10-09T07:04:19.221Z,8.85
2022-10-09T07:06:49.747Z,8.79
2022-10-09T07:09:20.144Z,8.81
2022-10-09T07:11:50.503Z,8.98
2022-10-09T07:14:20.993Z,8.92
2022-10-09T07:16:53.353Z,9.04
2022-10-09T07:19:23.989Z,9.22
2022-10-09T07:21:54.437Z,9.16
2022-10-09T07:24:25.504Z,9.22
2022-10-09T07:26:57.221Z,9.31
2022-10-09T07:29:27.612Z,9.38
2022-10-09T07:31:58.171Z,9.53
2022-10-09T07:34:28.670Z,9.40
2022-10-09T07:36:59.063Z,9.52
2022-10-09T07:39:29.497Z,9.51
2022-10-09T07:41:59.868Z,9.64
2022-10-09T07:44:30.224Z,9.67
2022-10-09T07:47:00.775Z,9.80
2022-10-09T07:49:31.352Z,9.84
2022-10-09T07:52:01.803Z,9.88
2022-10-09T07:54:32.177Z,9.92
2022-10-09T07:57:02.548Z,10.04
2022-10-09T07:59:33.015Z,10.07
2022-10-09T08:02:03.553Z,10.06
2022-10-09T08:04:34.194Z,10.13
2022-10-09T08:07:04.727Z,10.19
2022-10-09T08:09:35.123Z,10.22
2022-10-09T08:12:07.439Z,10.32
2022-10-09T08:14:37.884Z,10.34
2022-10-09T08:17:08.317Z,10.29
2022-10-09T08:19:38.712Z,10.35
2022-10-09T08:22:10.736Z,10.46
2022-10-09T08:24:41.143Z,10.46
2022-10-09T08:27:14.399Z,10.55
2022-10-09T08:29:44.826Z,10.60
2022-10-09T08:32:15.297Z,10.68
2022-10-09T08:34:45.617Z,10.79
2022-10-09T08:37:16.024Z,10.85
2022-10-09T08:39:46.352Z,10.92
2022-10-09T08:42:19.913Z,11.02
2022-10-09T08:44:50.766Z,11.04
2022-10-09T08:47:42.061Z,11.16
2022-10-09T08:50:15.475Z,11.20
2022-10-09T08:52:56.052Z,11.30
2022-10-09T08:58:39.113Z,11.52
2022-10-09T09:01:21.469Z,11.57
2022-10-09T09:04:04.163Z,11.62
2022-10-09T09:06:43.366Z,11.64
2022-10-09T09:09:36.378Z,11.74
2022-10-09T09:12:25.213Z,11.89
2022-10-09T09:14:58.762Z,12.04
2022-10-09T09:17:38.093Z,12.32
2022-10-09T09:20:45.451Z,12.39
2022-10-09T09:23:17.414Z,12.61
2022-10-09T09:25:48.186Z,13.14
2022-10-09T09:28:30.821Z,13.84
2022-10-09T09:31:19.258Z,14.40
2022-10-09T09:34:13.741Z,15.48
2022-10-09T09:36:59.325Z,15.73
2022-10-09T09:40:30.992Z,16.39
2022-10-09T09:42:17.333Z,16.56
2022-10-09T09:44:53.760Z,16.47
2022-10-09T09:47:32.979Z,16.13
2022-10-09T09:50:05.597Z,15.72
2022-10-09T09:52:42.082Z,15.28
2022-10-09T09:55:27.432Z,15.41
2022-10-09T09:58:07.168Z,15.66
2022-10-09T10:00:37.587Z,16.08
2022-10-09T10:03:17.852Z,16.08
2022-10-09T10:05:48.671Z,15.50
2022-10-09T10:08:30.946Z,15.58
2022-10-09T10:11:03.900Z,15.50
2022-10-09T10:13:52.147Z,15.08
2022-10-09T10:16:27.674Z,14.77
2022-10-09T10:18:59.269Z,14.59
2022-10-09T10:21:32.723Z,14.19
2022-10-09T10:24:08.670Z,14.23
2022-10-09T10:26:49.105Z,14.55
2022-10-09T10:29:34.506Z,14.71
2022-10-09T10:32:07.960Z,14.73
2022-10-09T10:34:44.058Z,14.97
2022-10-09T10:37:17.625Z,15.02
2022-10-09T10:39:53.652Z,15.10
2022-10-09T10:42:27.202Z,15.42
2022-10-09T10:45:12.960Z,15.79
2022-10-09T10:47:52.570Z,16.10
2022-10-09T10:50:25.120Z,16.28
2022-10-09T10:53:17.189Z,16.43
2022-10-09T10:56:08.108Z,16.39
2022-10-09T10:58:50.547Z,16.84
2022-10-09T11:01:23.921Z,17.54
2022-10-09T11:04:12.378Z,17.96
2022-10-09T11:06:54.833Z,17.89
2022-10-09T11:09:52.022Z,17.70
2022-10-09T11:12:52.921Z,17.90
2022-10-09T11:15:41.466Z,17.76
2022-10-09T11:18:20.573Z,17.87
2022-10-09T11:21:02.536Z,17.98
2022-10-09T11:23:55.366Z,18.72
2022-10-09T11:27:03.962Z,18.72
2022-10-09T11:29:53.920Z,19.34
2022-10-09T11:32:33.231Z,19.34
2022-10-09T11:35:18.601Z,19.76
2022-10-09T11:38:00.733Z,20.64
2022-10-09T11:40:35.788Z,21.95
2022-10-09T11:43:30.208Z,23.60
2022-10-09T11:46:15.111Z,24.49
2022-10-09T11:48:57.192Z,23.43
2022-10-09T11:51:36.515Z,21.46
2022-10-09T11:54:09.982Z,22.12
2022-10-09T11:56:40.361Z,22.41
2022-10-09T11:59:13.809Z,21.42
2022-10-09T12:01:46.697Z,19.96
2022-10-09T12:04:43.493Z,19.22
2022-10-09T12:07:01.462Z,18.34
2022-10-09T12:09:40.935Z,17.86
2022-10-09T12:12:20.852Z,17.85
2022-10-09T12:14:53.106Z,17.94
2022-10-09T12:17:26.584Z,17.71
2022-10-09T12:20:02.676Z,17.51
2022-10-09T12:22:56.403Z,17.44
2022-10-09T12:25:25.743Z,16.92
2022-10-09T12:27:58.414Z,16.74
2022-10-09T12:30:34.586Z,16.62
2022-10-09T12:33:23.386Z,16.43
2022-10-09T12:36:09.036Z,16.74
2022-10-09T12:38:39.462Z,16.70
2022-10-09T12:41:20.010Z,16.98
2022-10-09T12:43:48.937Z,17.12
2022-10-09T12:46:30.853Z,17.21
2022-10-09T12:49:03.810Z,16.96
2022-10-09T12:51:35.156Z,16.94
2022-10-09T12:54:10.915Z,16.60
2022-10-09T12:56:41.410Z,16.53
2022-10-09T12:59:13.622Z,16.38
2022-10-09T13:01:45.620Z,16.21
2022-10-09T13:04:34.015Z,16.24
2022-10-09T13:07:10.234Z,16.44
2022-10-09T13:09:42.240Z,16.34
2022-10-09T13:12:24.327Z,16.24
2022-10-09T13:14:57.581Z,16.26
2022-10-09T13:17:40.633Z,16.05
2022-10-09T13:20:17.125Z,16.06
2022-10-09T13:23:02.169Z,16.12
2022-10-09T13:25:41.629Z,16.18
2022-10-09T13:28:15.147Z,16.21
2022-10-09T13:30:45.770Z,16.42
2022-10-09T13:33:17.948Z,16.54
2022-10-09T13:35:48.632Z,16.40
2022-10-09T13:38:20.420Z,15.98
2022-10-09T13:40:51.337Z,15.98
2022-10-09T13:43:27.209Z,15.92
2022-10-09T13:45:58.163Z,15.72
2022-10-09T13:48:30.157Z,15.42
2022-10-09T13:51:00.761Z,15.50
2022-10-09T13:53:31.078Z,15.47
2022-10-09T13:56:02.049Z,15.47
2022-10-09T13:58:32.439Z,15.60
2022-10-09T14:01:03.217Z,15.77
2022-10-09T14:03:33.957Z,15.60
2022-10-09T14:06:06.237Z,15.58
2022-10-09T14:08:36.839Z,15.53
2022-10-09T14:11:07.466Z,15.60
2022-10-09T14:13:37.923Z,15.62
2022-10-09T14:16:08.709Z,15.68
2022-10-09T14:18:39.142Z,15.66
2022-10-09T14:21:15.601Z,15.63
2022-10-09T14:23:46.162Z,15.57
2022-10-09T14:26:16.677Z,15.42
2022-10-09T14:28:47.099Z,15.48
2022-10-09T14:31:17.653Z,15.44
2022-10-09T14:33:49.302Z,15.54
2022-10-09T14:36:20.725Z,15.48
2022-10-09T14:38:51.570Z,15.49
2022-10-09T14:41:22.852Z,15.41
2022-10-09T14:43:56.789Z,15.37
2022-10-09T14:46:28.609Z,15.36
2022-10-09T14:48:59.103Z,15.40
2022-10-09T14:51:33.609Z,15.30
2022-10-09T14:54:01.784Z,15.29
2022-10-09T14:56:32.639Z,15.28
2022-10-09T14:59:05.346Z,15.08
2022-10-09T15:01:36.156Z,15.08
2022-10-09T15:04:07.275Z,15.00
2022-10-09T15:06:37.952Z,15.12
2022-10-09T15:09:08.310Z,15.00
2022-10-09T15:11:38.767Z,14.98
2022-10-09T15:14:09.153Z,14.97
2022-10-09T15:16:39.467Z,14.83
2022-10-09T15:19:09.759Z,14.79
2022-10-09T15:21:40.250Z,14.77
2022-10-09T15:24:11.387Z,14.71
2022-10-09T15:26:42.035Z,14.68
2022-10-09T15:29:12.486Z,14.61
2022-10-09T15:31:43.165Z,14.63
2022-10-09T15:34:16.709Z,14.54
2022-10-09T15:36:47.845Z,14.46
2022-10-09T15:39:18.428Z,14.52
2022-10-09T15:41:48.943Z,14.49
2022-10-09T15:44:21.435Z,14.42
2022-10-09T15:46:52.144Z,14.30
2022-10-09T15:49:22.526Z,14.22
2022-10-09T15:51:53.368Z,14.17
2022-10-09T15:54:25.665Z,14.08
2022-10-09T15:56:56.034Z,14.12
2022-10-09T15:59:29.720Z,14.05
2022-10-09T16:02:00.237Z,14.06
2022-10-09T16:04:31.075Z,14.06
2022-10-09T16:07:01.789Z,13.90
2022-10-09T16:09:36.278Z,13.89
2022-10-09T16:12:07.495Z,13.84
2022-10-09T16:14:38.341Z,13.78
2022-10-09T16:17:11.340Z,13.66
2022-10-09T16:19:40.898Z,13.61
2022-10-09T16:22:12.998Z,13.50
2022-10-09T16:24:43.472Z,13.45
2022-10-09T16:27:13.949Z,13.31
2022-10-09T16:29:44.673Z,13.26
2022-10-09T16:32:15.053Z,13.15
2022-10-09T16:34:45.438Z,13.08
2022-10-09T16:37:15.841Z,13.02
2022-10-09T16:39:46.296Z,12.96
2022-10-09T16:42:17.630Z,12.94
2022-10-09T16:44:51.515Z,12.90
2022-10-09T16:47:21.883Z,12.87
2022-10-09T16:49:52.454Z,12.88
2022-10-09T16:52:22.927Z,12.79
2022-10-09T16:54:57.013Z,12.72
2022-10-09T16:57:27.181Z,12.70
2022-10-09T16:59:57.635Z,12.66
2022-10-09T17:02:28.626Z,12.63
2022-10-09T17:04:59.010Z,12.61
2022-10-09T17:07:30.307Z,12.58
2022-10-09T17:10:00.703Z,12.60
2022-10-09T17:12:31.069Z,12.58
2022-10-09T17:15:01.464Z,12.55
2022-10-09T17:17:31.864Z,12.56
2022-10-09T17:20:02.586Z,12.48
2022-10-09T17:22:32.977Z,12.48
2022-10-09T17:25:03.375Z,12.51
2022-10-09T17:27:33.776Z,12.44
2022-10-09T17:30:04.302Z,12.44
2022-10-09T17:32:34.667Z,12.43
2022-10-09T17:35:07.046Z,12.39
2022-10-09T17:37:37.509Z,12.35
2022-10-09T17:40:08.514Z,12.29
2022-10-09T17:42:39.197Z,12.29
2022-10-09T17:45:10.152Z,12.24
2022-10-09T17:47:40.616Z,12.23
2022-10-09T17:50:12.153Z,12.15
2022-10-09T17:52:42.629Z,12.12
2022-10-09T17:55:13.035Z,12.09
2022-10-09T17:57:43.567Z,12.06
2022-10-09T18:00:19.656Z,12.04
2022-10-09T18:02:47.166Z,11.98
2022-10-09T18:05:17.690Z,12.00
2022-10-09T18:07:48.515Z,11.96
2022-10-09T18:10:20.774Z,11.92
2022-10-09T18:12:51.367Z,11.85
2022-10-09T18:15:21.924Z,11.86
2022-10-09T18:17:52.780Z,11.82
2022-10-09T18:20:26.508Z,11.76
2022-10-09T18:22:57.054Z,11.77
2022-10-09T18:25:27.551Z,11.71
2022-10-09T18:27:58.520Z,11.68
2022-10-09T18:30:28.931Z,11.68
2022-10-09T18:32:59.339Z,11.64
2022-10-09T18:35:30.251Z,11.60
2022-10-09T18:38:00.696Z,11.56
2022-10-09T18:40:31.032Z,11.54
2022-10-09T18:43:01.497Z,11.51
2022-10-09T18:45:32.468Z,11.50
2022-10-09T18:48:03.841Z,11.54
2022-10-09T18:50:34.404Z,11.54
2022-10-09T18:53:05.503Z,11.51
2022-10-09T18:55:36.105Z,11.52
2022-10-09T18:58:07.151Z,11.54
2022-10-09T19:00:39.355Z,11.50
2022-10-09T19:03:09.868Z,11.52
2022-10-09T19:05:40.338Z,11.48
2022-10-09T19:08:10.862Z,11.50
2022-10-09T19:10:41.237Z,11.50
2022-10-09T19:13:11.963Z,11.47
2022-10-09T19:15:42.331Z,11.48
2022-10-09T19:18:12.734Z,11.44
2022-10-09T19:20:43.040Z,11.47
2022-10-09T19:23:15.040Z,11.44
2022-10-09T19:25:50.542Z,11.38
2022-10-09T19:28:22.198Z,11.38
2022-10-09T19:30:53.380Z,11.38
2022-10-09T19:33:23.736Z,11.31
2022-10-09T19:35:56.500Z,11.27
2022-10-09T19:38:27.934Z,11.34
2022-10-09T19:41:07.167Z,11.24
2022-10-09T19:43:38.211Z,11.23
2022-10-09T19:46:11.640Z,11.19
2022-10-09T19:48:42.269Z,11.19
2022-10-09T19:51:15.903Z,11.10
2022-10-09T19:53:46.721Z,11.10
2022-10-09T19:56:20.059Z,11.14
2022-10-09T19:58:51.195Z,11.12
2022-10-09T20:01:24.828Z,11.11
2022-10-09T20:03:58.269Z,11.10
2022-10-09T20:06:29.472Z,11.06
2022-10-09T20:09:00.245Z,11.02
2022-10-09T20:11:30.584Z,11.01
2022-10-09T20:14:02.791Z,11.00
2022-10-09T20:16:33.610Z,10.98
2022-10-09T20:19:05.499Z,10.98
2022-10-09T20:21:36.248Z,11.10
2022-10-09T20:24:06.786Z,10.98
2022-10-09T20:26:42.204Z,11.01
2022-10-09T20:29:09.467Z,10.98
2022-10-09T20:31:40.439Z,10.96
2022-10-09T20:34:10.829Z,10.90
2022-10-09T20:36:41.330Z,10.92
2022-10-09T20:39:16.195Z,10.89
2022-10-09T20:41:46.709Z,10.90
2022-10-09T20:44:17.015Z,10.92
2022-10-09T20:46:47.423Z,10.86
2022-10-09T20:49:18.095Z,10.84
2022-10-09T20:51:48.511Z,10.84
2022-10-09T20:54:20.708Z,10.82
2022-10-09T20:56:51.502Z,10.82
2022-10-09T20:59:22.067Z,10.82
2022-10-09T21:01:52.566Z,10.75
2022-10-09T21:04:22.946Z,10.72
2022-10-09T21:06:53.478Z,10.70
2022-10-09T21:09:24.015Z,10.70
2022-10-09T21:11:54.478Z,10.74
2022-10-09T21:14:24.923Z,10.70
2022-10-09T21:16:55.349Z,10.75
2022-10-09T21:19:25.977Z,10.66
2022-10-09T21:21:56.416Z,10.74
2022-10-09T21:24:30.037Z,10.70
2022-10-09T21:27:00.356Z,10.63
2022-10-09T21:29:30.673Z,10.71
2022-10-09T21:32:01.115Z,10.63
2022-10-09T21:34:31.495Z,10.58
2022-10-09T21:37:20.355Z,10.50
2022-10-09T21:39:33.996Z,10.48
2022-10-09T21:42:04.470Z,10.46
2022-10-09T21:44:34.884Z,10.39
2022-10-09T21:47:05.518Z,10.36
2022-10-09T21:49:35.994Z,10.33
2022-10-09T21:52:06.447Z,10.27
2022-10-09T21:54:36.835Z,10.28
2022-10-09T21:57:07.208Z,10.31
2022-10-09T21:59:37.538Z,10.20
2022-10-09T22:02:07.877Z,10.20
2022-10-09T22:04:38.367Z,10.18
2022-10-09T22:07:08.873Z,10.13
2022-10-09T22:09:39.497Z,10.08
2022-10-09T22:12:09.924Z,10.08
2022-10-09T22:14:40.353Z,10.07
2022-10-09T22:17:11.069Z,10.12
2022-10-09T22:19:42.049Z,9.98
2022-10-09T22:22:12.457Z,10.02
2022-10-09T22:24:42.841Z,9.94
2022-10-09T22:27:13.179Z,9.90
2022-10-09T22:29:43.473Z,9.86
2022-10-09T22:32:13.799Z,9.90
2022-10-09T22:34:44.160Z,9.85
2022-10-09T22:37:14.637Z,9.76
2022-10-09T22:39:44.976Z,9.78
2022-10-09T22:42:15.623Z,9.78
2022-10-09T22:44:46.001Z,9.78
2022-10-09T22:47:16.391Z,9.77
2022-10-09T22:49:46.698Z,9.74
2022-10-09T22:52:17.178Z,9.76
2022-10-09T22:54:47.780Z,9.74
2022-10-09T22:57:18.938Z,9.70
2022-10-09T22:59:49.293Z,9.82
2022-10-09T23:02:19.606Z,9.71
2022-10-09T23:04:50.011Z,9.68
2022-10-09T23:07:20.411Z,9.66
2022-10-09T23:09:50.782Z,9.61
2022-10-09T23:12:21.327Z,9.60
2022-10-09T23:14:51.789Z,9.68
2022-10-09T23:17:22.199Z,9.59
2022-10-09T23:19:52.574Z,9.68
2022-10-09T23:22:23.102Z,9.64
2022-10-09T23:24:53.544Z,9.61
2022-10-09T23:27:23.933Z,9.54
2022-10-09T23:29:54.357Z,9.53
2022-10-09T23:32:24.952Z,9.56
2022-10-09T23:34:55.342Z,9.48
2022-10-09T23:37:25.719Z,9.50
2022-10-09T23:39:56.106Z,9.42
2022-10-09T23:42:26.636Z,9.44
2022-10-09T23:44:57.081Z,9.40
2022-10-09T23:47:27.515Z,9.36
2022-10-09T23:49:57.945Z,9.34
2022-10-09T23:52:28.356Z,9.32
2022-10-09T23:54:58.665Z,9.31
2022-10-09T23:57:29.052Z,9.30
2022-10-09T23:59:59.522Z,9.28
